Kissho — JD3124 — position and weather

sailwx.info

Track history (hours):
 
Tides and Currents Weather Stations Pressure Air Temp Water Temp Dewpoint Dewpoint Depression Visibility Wind Speed Wind Dir Waves Ship Positions

Kissho

Last reported at 2015-Apr-02 09:32 UTC. Time now 2015-Apr-18 04:53 UTC.
Position N 34°39' E 135°26'.
Warning: this ship's position is 15 days out of date.

Length 30 m.

Type: Tug. MMSI: 431002115.

Date/timePositionNaut miles runAvg speedWind from/ knotsBaromVisibWave heightAir tempDewpointWater temp
2015-Apr-02 09:32N 34°39' E 135°26'9 9.4
2015-Apr-02 08:33N 34°32' E 135°18'2110.4
2015-Apr-02 06:33N 34°16' E 135°03'234 5.3
2015-Mar-31 10:28N 35°06' E 139°41'9 9.1
2015-Mar-31 09:32N 35°13' E 139°47'9 9.1
2015-Mar-31 08:33N 35°21' E 139°46'1 1.4
2015-Mar-31 07:32N 35°23' E 139°46'9 8.8
2015-Mar-31 06:29N 35°14' E 139°47'9 9.8
2015-Mar-31 05:32N 35°04' E 139°46'15 7.2
2015-Mar-31 03:32N 34°54' E 139°57'13 8.5
2015-Mar-31 02:03N 34°60' E 140°11'22 8.2
2015-Mar-30 23:21N 35°15' E 140°30'  
Track history (hours):
 
Tides and Currents Weather Stations Pressure Air Temp Water Temp Dewpoint Dewpoint Depression Visibility Wind Speed Wind Dir Waves Ship Positions

Kissho

Last reported at 2015-Apr-02 09:32 UTC. Time now 2015-Apr-18 04:53 UTC.
Position N 34°39' E 135°26'.
Warning: this ship's position is 15 days out of date.

Length 30 m.

Type: Tug. MMSI: 431002115.

Date/timePositionNaut miles runAvg speedWind from/ knotsBaromVisibWave heightAir tempDewpointWater temp
2015-Apr-02 09:32N 34°39' E 135°26'9 9.4
2015-Apr-02 08:33N 34°32' E 135°18'2110.4
2015-Apr-02 06:33N 34°16' E 135°03'234 5.3
2015-Mar-31 10:28N 35°06' E 139°41'9 9.1
2015-Mar-31 09:32N 35°13' E 139°47'9 9.1
2015-Mar-31 08:33N 35°21' E 139°46'1 1.4
2015-Mar-31 07:32N 35°23' E 139°46'9 8.8
2015-Mar-31 06:29N 35°14' E 139°47'9 9.8
2015-Mar-31 05:32N 35°04' E 139°46'15 7.2
2015-Mar-31 03:32N 34°54' E 139°57'13 8.5
2015-Mar-31 02:03N 34°60' E 140°11'22 8.2
2015-Mar-30 23:21N 35°15' E 140°30'  

Dump ship's entire track history